createdAt,value
2023-09-02T00:01:25.001Z,15.32
2023-09-02T00:04:28.281Z,15.23
2023-09-02T00:07:32.799Z,15.17
2023-09-02T00:10:35.976Z,15.11
2023-09-02T00:13:39.752Z,15.14
2023-09-02T00:16:42.959Z,15.10
2023-09-02T00:19:46.123Z,15.06
2023-09-02T00:22:50.696Z,15.03
2023-09-02T00:25:54.077Z,15.00
2023-09-02T00:28:57.258Z,15.04
2023-09-02T00:32:00.438Z,15.01
2023-09-02T00:35:04.187Z,15.02
2023-09-02T00:38:08.739Z,15.06
2023-09-02T00:41:15.681Z,15.07
2023-09-02T00:44:19.244Z,15.11
2023-09-02T00:47:22.562Z,14.99
2023-09-02T00:50:25.912Z,15.03
2023-09-02T00:53:30.430Z,14.96
2023-09-02T00:56:34.662Z,14.87
2023-09-02T00:59:37.991Z,14.87
2023-09-02T01:02:41.432Z,14.71
2023-09-02T01:05:44.671Z,14.66
2023-09-02T01:08:49.706Z,14.59
2023-09-02T01:11:52.967Z,14.59
2023-09-02T01:14:56.242Z,14.53
2023-09-02T01:17:59.644Z,14.59
2023-09-02T01:21:38.716Z,14.58
2023-09-02T01:25:07.994Z,14.62
2023-09-02T01:28:17.528Z,14.60
2023-09-02T01:31:24.190Z,14.62
2023-09-02T01:34:29.881Z,14.56
2023-09-02T01:37:35.215Z,14.47
2023-09-02T01:40:42.716Z,14.48
2023-09-02T01:43:48.037Z,14.47
2023-09-02T01:46:52.205Z,14.57
2023-09-02T01:49:56.179Z,14.70
2023-09-02T01:53:00.534Z,14.88
2023-09-02T01:56:04.921Z,14.95
2023-09-02T01:59:09.783Z,14.51
2023-09-02T02:02:15.590Z,14.37
2023-09-02T02:05:20.170Z,14.26
2023-09-02T02:08:31.082Z,14.22
2023-09-02T02:11:37.438Z,14.32
2023-09-02T02:14:42.083Z,14.05
2023-09-02T02:17:45.391Z,14.02
2023-09-02T02:21:00.456Z,14.02
2023-09-02T02:24:03.860Z,13.96
2023-09-02T02:27:07.484Z,13.93
2023-09-02T02:30:13.466Z,13.92
2023-09-02T02:33:17.028Z,13.93
2023-09-02T02:36:20.387Z,13.85
2023-09-02T02:39:23.964Z,13.79
2023-09-02T02:42:27.172Z,13.74
2023-09-02T02:45:31.755Z,13.73
2023-09-02T02:48:35.240Z,13.63
2023-09-02T02:51:38.434Z,13.63
2023-09-02T02:54:41.631Z,13.57
2023-09-02T02:57:45.333Z,13.64
2023-09-02T03:00:51.059Z,13.52
2023-09-02T03:03:55.641Z,13.57
2023-09-02T03:06:59.044Z,13.51
2023-09-02T03:10:02.264Z,13.42
2023-09-02T03:13:07.810Z,13.39
2023-09-02T03:16:14.010Z,13.46
2023-09-02T03:19:17.640Z,13.43
2023-09-02T03:22:21.919Z,13.35
2023-09-02T03:25:28.420Z,13.27
2023-09-02T03:28:32.075Z,13.30
2023-09-02T03:34:29.529Z,13.14
2023-09-02T03:37:32.879Z,13.28
2023-09-02T03:40:36.142Z,13.41
2023-09-02T03:43:39.425Z,13.23
2023-09-02T03:46:42.759Z,13.37
2023-09-02T03:49:47.638Z,13.65
2023-09-02T03:52:51.027Z,13.87
2023-09-02T03:55:55.331Z,13.31
2023-09-02T03:59:00.227Z,13.15
2023-09-02T04:02:04.131Z,13.14
2023-09-02T04:05:09.114Z,13.10
2023-09-02T04:08:12.380Z,13.14
2023-09-02T04:11:17.673Z,13.04
2023-09-02T04:14:20.857Z,12.94
2023-09-02T04:17:24.990Z,13.01
2023-09-02T04:20:29.672Z,13.07
2023-09-02T04:23:34.413Z,12.99
2023-09-02T04:26:44.251Z,13.23
2023-09-02T04:29:47.510Z,12.95
2023-09-02T04:32:51.999Z,12.88
2023-09-02T04:36:00.251Z,12.95
2023-09-02T04:39:06.098Z,12.92
2023-09-02T04:42:09.824Z,12.84
2023-09-02T04:45:15.833Z,12.91
2023-09-02T04:48:20.844Z,12.84
2023-09-02T04:51:37.572Z,12.86
2023-09-02T04:54:46.924Z,12.90
2023-09-02T04:57:54.545Z,12.93
2023-09-02T05:01:09.201Z,12.97
2023-09-02T05:04:16.836Z,13.02
2023-09-02T05:07:22.043Z,13.02
2023-09-02T05:10:25.669Z,13.04
2023-09-02T05:13:29.101Z,13.08
2023-09-02T05:16:32.621Z,13.14
2023-09-02T05:19:57.299Z,13.24
2023-09-02T05:23:02.351Z,13.22
2023-09-02T05:26:06.048Z,13.67
2023-09-02T05:29:10.316Z,13.47
2023-09-02T05:32:14.833Z,13.47
2023-09-02T05:35:18.308Z,13.50
2023-09-02T05:38:23.123Z,13.87
2023-09-02T05:41:26.432Z,13.73
2023-09-02T05:44:29.618Z,13.78
2023-09-02T05:47:33.164Z,13.76
2023-09-02T05:50:36.614Z,13.90
2023-09-02T05:53:41.229Z,13.96
2023-09-02T05:56:49.992Z,14.23
2023-09-02T05:59:53.330Z,14.41
2023-09-02T06:02:56.624Z,14.60
2023-09-02T06:05:59.879Z,14.93
2023-09-02T06:09:04.793Z,14.96
2023-09-02T06:12:08.422Z,15.14
2023-09-02T06:15:32.005Z,15.33
2023-09-02T06:18:37.396Z,15.36
2023-09-02T06:21:40.568Z,15.63
2023-09-02T06:24:45.280Z,15.82
2023-09-02T06:27:48.451Z,16.23
2023-09-02T06:30:51.760Z,16.05
2023-09-02T06:33:57.154Z,16.34
2023-09-02T06:37:00.313Z,16.70
2023-09-02T06:40:05.596Z,16.83
2023-09-02T06:43:08.716Z,17.11
2023-09-02T06:46:13.649Z,17.00
2023-09-02T06:49:16.984Z,16.80
2023-09-02T06:52:20.168Z,17.11
2023-09-02T06:55:26.500Z,17.24
2023-09-02T06:58:29.780Z,17.24
2023-09-02T07:01:33.018Z,17.43
2023-09-02T07:04:38.468Z,17.60
2023-09-02T07:07:41.780Z,17.46
2023-09-02T07:10:46.322Z,17.34
2023-09-02T07:13:49.468Z,17.17
2023-09-02T07:16:53.520Z,17.40
2023-09-02T07:19:57.380Z,17.62
2023-09-02T07:23:00.599Z,17.88
2023-09-02T07:26:06.571Z,17.66
2023-09-02T07:29:10.338Z,17.68
2023-09-02T07:32:13.558Z,17.77
2023-09-02T07:35:16.827Z,17.81
2023-09-02T07:38:20.197Z,17.85
2023-09-02T07:41:24.929Z,18.42
2023-09-02T07:44:28.267Z,18.40
2023-09-02T07:47:31.608Z,18.11
2023-09-02T07:50:34.798Z,17.94
2023-09-02T07:53:37.968Z,17.91
2023-09-02T07:56:42.564Z,17.79
2023-09-02T07:59:45.821Z,17.83
2023-09-02T08:02:49.026Z,18.06
2023-09-02T08:05:52.398Z,18.54
2023-09-02T08:08:55.888Z,18.49
2023-09-02T08:12:00.414Z,18.47
2023-09-02T08:15:03.845Z,18.34
2023-09-02T08:18:08.626Z,18.09
2023-09-02T08:21:13.021Z,18.36
2023-09-02T08:24:16.223Z,18.23
2023-09-02T08:27:20.742Z,18.56
2023-09-02T08:30:24.337Z,18.75
2023-09-02T08:33:28.116Z,18.80
2023-09-02T08:36:31.432Z,18.99
2023-09-02T08:39:35.144Z,18.89
2023-09-02T08:42:41.716Z,18.76
2023-09-02T08:45:51.318Z,19.05
2023-09-02T08:48:57.240Z,19.28
2023-09-02T08:52:01.438Z,19.36
2023-09-02T08:55:05.810Z,19.11
2023-09-02T08:58:10.834Z,19.22
2023-09-02T09:01:18.778Z,19.27
2023-09-02T09:04:22.949Z,19.42
2023-09-02T09:07:27.081Z,19.64
2023-09-02T09:10:33.500Z,19.84
2023-09-02T09:13:45.053Z,20.30
2023-09-02T09:16:50.842Z,20.41
2023-09-02T09:19:54.918Z,20.68
2023-09-02T09:22:58.230Z,20.30
2023-09-02T09:26:01.792Z,20.17
2023-09-02T09:29:13.185Z,20.59
2023-09-02T09:34:37.557Z,20.85
2023-09-02T09:37:54.354Z,20.52
2023-09-02T09:40:57.603Z,20.81
2023-09-02T09:44:05.191Z,21.07
2023-09-02T09:47:11.103Z,21.12
2023-09-02T09:50:17.596Z,21.42
2023-09-02T09:53:21.181Z,21.42
2023-09-02T09:56:25.320Z,21.24
2023-09-02T09:59:28.701Z,21.18
2023-09-02T10:02:32.008Z,21.04
2023-09-02T10:05:36.855Z,21.59
2023-09-02T10:08:54.178Z,21.40
2023-09-02T10:12:12.462Z,21.50
2023-09-02T10:15:16.376Z,21.63
2023-09-02T10:18:21.463Z,21.71
2023-09-02T10:21:30.965Z,21.86
2023-09-02T10:24:38.325Z,21.90
2023-09-02T10:27:45.629Z,21.82
2023-09-02T10:30:52.526Z,21.99
2023-09-02T10:34:04.148Z,22.24
2023-09-02T10:37:15.062Z,22.22
2023-09-02T10:40:24.262Z,22.37
2023-09-02T10:43:28.133Z,22.43
2023-09-02T10:46:31.963Z,22.33
2023-09-02T10:49:36.409Z,22.49
2023-09-02T10:52:43.621Z,22.58
2023-09-02T10:56:00.942Z,22.63
2023-09-02T10:59:06.065Z,22.91
2023-09-02T11:02:09.532Z,22.77
2023-09-02T11:05:13.792Z,22.69
2023-09-02T11:08:47.618Z,22.61
2023-09-02T11:12:10.999Z,22.70
2023-09-02T11:15:19.839Z,22.82
2023-09-02T11:18:30.887Z,22.51
2023-09-02T11:21:37.891Z,22.68
2023-09-02T11:24:50.236Z,22.75
2023-09-02T11:27:54.158Z,22.79
2023-09-02T11:31:06.637Z,23.26
2023-09-02T11:34:10.359Z,23.25
2023-09-02T11:37:13.907Z,23.16
2023-09-02T11:40:19.982Z,22.95
2023-09-02T11:43:23.168Z,23.05
2023-09-02T11:46:26.723Z,23.06
2023-09-02T11:49:30.031Z,22.49
2023-09-02T11:52:33.294Z,22.77
2023-09-02T11:55:40.196Z,22.95
2023-09-02T11:58:43.518Z,23.00
2023-09-02T12:01:46.755Z,23.18
2023-09-02T12:04:50.014Z,23.08
2023-09-02T12:07:53.306Z,23.20
2023-09-02T12:10:59.361Z,23.15
2023-09-02T12:14:03.034Z,23.37
2023-09-02T12:17:07.055Z,23.41
2023-09-02T12:20:12.498Z,23.51
2023-09-02T12:23:17.038Z,23.31
2023-09-02T12:26:23.801Z,23.31
2023-09-02T12:29:27.328Z,23.38
2023-09-02T12:32:32.289Z,23.54
2023-09-02T12:35:35.833Z,23.25
2023-09-02T12:38:50.021Z,23.36
2023-09-02T12:41:54.616Z,23.62
2023-09-02T12:45:03.544Z,23.44
2023-09-02T12:48:07.632Z,23.44
2023-09-02T12:51:22.439Z,23.70
2023-09-02T12:54:31.766Z,23.63
2023-09-02T12:57:37.544Z,23.96
2023-09-02T13:00:40.755Z,23.76
2023-09-02T13:03:44.002Z,23.56
2023-09-02T13:06:47.762Z,23.81
2023-09-02T13:09:53.023Z,23.72
2023-09-02T13:12:58.773Z,23.75
2023-09-02T13:16:02.144Z,23.72
2023-09-02T13:19:08.839Z,23.65
2023-09-02T13:22:11.944Z,23.62
2023-09-02T13:25:17.219Z,23.88
2023-09-02T13:28:21.790Z,24.13
2023-09-02T13:31:24.977Z,23.88
2023-09-02T13:34:32.997Z,23.83
2023-09-02T13:37:37.448Z,23.85
2023-09-02T13:40:41.209Z,23.88
2023-09-02T13:43:45.743Z,24.33
2023-09-02T13:46:55.910Z,23.98
2023-09-02T13:50:01.094Z,23.89
2023-09-02T13:53:04.785Z,23.93
2023-09-02T13:56:08.061Z,24.19
2023-09-02T13:59:12.862Z,23.99
2023-09-02T14:02:18.926Z,23.94
2023-09-02T14:05:25.317Z,24.02
2023-09-02T14:08:36.288Z,23.93
2023-09-02T14:11:39.513Z,23.71
2023-09-02T14:14:44.141Z,23.50
2023-09-02T14:17:47.666Z,23.41
2023-09-02T14:20:50.901Z,23.54
2023-09-02T14:23:54.819Z,23.70
2023-09-02T14:27:12.372Z,23.77
2023-09-02T14:30:17.329Z,23.99
2023-09-02T14:33:20.716Z,23.82
2023-09-02T14:36:24.187Z,23.80
2023-09-02T14:39:28.963Z,23.74
2023-09-02T14:42:33.745Z,23.85
2023-09-02T14:45:38.328Z,23.71
2023-09-02T14:48:42.487Z,23.69
2023-09-02T14:51:48.048Z,23.62
2023-09-02T14:54:52.034Z,23.63
2023-09-02T14:57:55.606Z,23.47
2023-09-02T15:01:03.433Z,23.65
2023-09-02T15:04:08.981Z,23.77
2023-09-02T15:07:15.921Z,23.63
2023-09-02T15:10:24.925Z,23.60
2023-09-02T15:13:29.217Z,23.62
2023-09-02T15:16:35.446Z,23.64
2023-09-02T15:19:40.623Z,23.53
2023-09-02T15:22:43.896Z,23.54
2023-09-02T15:25:47.064Z,23.72
2023-09-02T15:28:50.374Z,23.64
2023-09-02T15:34:29.325Z,23.57
2023-09-02T15:37:32.504Z,23.51
2023-09-02T15:40:36.440Z,23.51
2023-09-02T15:43:40.340Z,23.49
2023-09-02T15:46:43.524Z,23.32
2023-09-02T15:49:48.136Z,23.54
2023-09-02T15:52:52.770Z,23.36
2023-09-02T15:55:56.760Z,23.14
2023-09-02T15:59:00.019Z,23.07
2023-09-02T16:02:03.251Z,23.11
2023-09-02T16:05:08.556Z,23.10
2023-09-02T16:08:11.712Z,23.19
2023-09-02T16:11:15.031Z,23.13
2023-09-02T16:14:18.240Z,23.07
2023-09-02T16:17:22.747Z,22.84
2023-09-02T16:20:28.235Z,22.88
2023-09-02T16:23:31.495Z,22.83
2023-09-02T16:26:34.782Z,22.83
2023-09-02T16:29:38.928Z,22.89
2023-09-02T16:32:42.443Z,22.81
2023-09-02T16:35:47.070Z,22.80
2023-09-02T16:38:51.080Z,22.69
2023-09-02T16:41:54.570Z,22.53
2023-09-02T16:45:03.528Z,22.46
2023-09-02T16:48:10.417Z,22.46
2023-09-02T16:51:17.385Z,22.34
2023-09-02T16:54:20.645Z,22.32
2023-09-02T16:57:23.809Z,22.26
2023-09-02T17:00:32.653Z,22.28
2023-09-02T17:03:37.172Z,22.22
2023-09-02T17:06:41.892Z,22.04
2023-09-02T17:09:45.325Z,22.00
2023-09-02T17:12:49.162Z,21.83
2023-09-02T17:15:52.582Z,21.76
2023-09-02T17:18:56.933Z,21.49
2023-09-02T17:22:01.576Z,21.33
2023-09-02T17:25:05.290Z,21.20
2023-09-02T17:28:10.340Z,21.07
2023-09-02T17:31:13.877Z,20.96
2023-09-02T17:34:17.097Z,20.99
2023-09-02T17:37:23.009Z,20.84
2023-09-02T17:40:28.125Z,20.74
2023-09-02T17:43:31.391Z,20.57
2023-09-02T17:46:34.919Z,20.47
2023-09-02T17:49:38.197Z,20.39
2023-09-02T17:52:42.878Z,20.31
2023-09-02T17:55:46.606Z,20.25
2023-09-02T17:58:49.797Z,20.18
2023-09-02T18:01:53.080Z,20.14
2023-09-02T18:04:58.811Z,20.15
2023-09-02T18:08:05.013Z,20.03
2023-09-02T18:11:08.270Z,19.92
2023-09-02T18:14:11.414Z,19.78
2023-09-02T18:17:14.673Z,19.67
2023-09-02T18:20:18.015Z,19.61
2023-09-02T18:23:22.588Z,19.52
2023-09-02T18:26:25.812Z,19.40
2023-09-02T18:29:29.190Z,19.41
2023-09-02T18:32:33.790Z,19.34
2023-09-02T18:35:37.448Z,19.31
2023-09-02T18:38:41.956Z,19.27
2023-09-02T18:41:49.901Z,19.24
2023-09-02T18:44:53.116Z,19.24
2023-09-02T18:47:56.834Z,19.20
2023-09-02T18:51:00.040Z,19.18
2023-09-02T18:54:04.910Z,19.13
2023-09-02T18:57:08.704Z,19.04
2023-09-02T19:00:13.127Z,18.94
2023-09-02T19:03:16.302Z,18.83
2023-09-02T19:06:19.592Z,18.73
2023-09-02T19:09:24.081Z,18.76
2023-09-02T19:12:27.263Z,18.74
2023-09-02T19:15:30.418Z,18.72
2023-09-02T19:18:33.650Z,18.72
2023-09-02T19:21:36.883Z,18.67
2023-09-02T19:24:41.657Z,18.55
2023-09-02T19:27:46.203Z,18.56
2023-09-02T19:30:54.647Z,18.48
2023-09-02T19:33:57.854Z,18.39
2023-09-02T19:37:04.978Z,18.35
2023-09-02T19:40:10.715Z,18.30
2023-09-02T19:43:13.933Z,18.25
2023-09-02T19:46:17.460Z,18.21
2023-09-02T19:49:23.549Z,18.07
2023-09-02T19:52:27.302Z,17.95
2023-09-02T19:55:34.189Z,17.93
2023-09-02T19:58:46.756Z,17.88
2023-09-02T20:01:57.362Z,17.84
2023-09-02T20:05:00.735Z,17.87
2023-09-02T20:08:03.905Z,17.84
2023-09-02T20:11:08.590Z,17.96
2023-09-02T20:14:11.966Z,17.88
2023-09-02T20:17:16.025Z,17.81
2023-09-02T20:20:19.455Z,17.75
2023-09-02T20:23:22.835Z,17.70
2023-09-02T20:26:27.369Z,17.70
2023-09-02T20:29:30.537Z,17.67
2023-09-02T20:32:33.793Z,17.61
2023-09-02T20:35:37.367Z,17.50
2023-09-02T20:38:44.126Z,17.49
2023-09-02T20:41:52.696Z,17.45
2023-09-02T20:44:56.127Z,17.40
2023-09-02T20:47:59.446Z,17.02
2023-09-02T20:51:02.783Z,16.77
2023-09-02T20:54:07.080Z,16.72
2023-09-02T20:57:11.697Z,16.65
2023-09-02T21:00:15.864Z,16.64
2023-09-02T21:03:19.041Z,16.61
2023-09-02T21:06:22.342Z,16.63
2023-09-02T21:09:25.631Z,16.79
2023-09-02T21:12:30.164Z,16.78
2023-09-02T21:15:36.144Z,16.86
2023-09-02T21:18:39.952Z,16.82
2023-09-02T21:21:43.142Z,16.51
2023-09-02T21:24:51.320Z,16.61
2023-09-02T21:27:55.834Z,16.55
2023-09-02T21:34:29.140Z,16.58
2023-09-02T21:37:32.480Z,16.37
2023-09-02T21:40:35.777Z,16.29
2023-09-02T21:43:40.888Z,16.33
2023-09-02T21:46:44.604Z,16.37
2023-09-02T21:49:50.210Z,16.54
2023-09-02T21:52:53.374Z,16.40
2023-09-02T21:55:57.048Z,16.37
2023-09-02T21:59:00.245Z,16.46
2023-09-02T22:02:03.991Z,16.40
2023-09-02T22:05:09.015Z,16.31
2023-09-02T22:08:12.325Z,16.33
2023-09-02T22:11:17.344Z,16.29
2023-09-02T22:14:20.575Z,16.26
2023-09-02T22:17:23.895Z,16.22
2023-09-02T22:20:29.150Z,16.16
2023-09-02T22:23:33.392Z,16.13
2023-09-02T22:26:36.603Z,16.13
2023-09-02T22:29:39.881Z,16.02
2023-09-02T22:32:43.083Z,16.00
2023-09-02T22:35:47.974Z,16.00
2023-09-02T22:41:57.885Z,15.92
2023-09-02T22:45:01.111Z,15.84
2023-09-02T22:48:04.925Z,15.85
2023-09-02T22:51:12.566Z,15.87
2023-09-02T22:54:15.713Z,15.83
2023-09-02T22:57:18.851Z,15.77
2023-09-02T23:00:22.098Z,15.73
2023-09-02T23:03:25.357Z,15.72
2023-09-02T23:06:29.868Z,15.71
2023-09-02T23:09:34.236Z,15.68
2023-09-02T23:12:37.588Z,15.68
2023-09-02T23:15:40.788Z,15.66
2023-09-02T23:18:43.938Z,15.62
2023-09-02T23:21:50.201Z,15.61
2023-09-02T23:24:53.390Z,15.63
2023-09-02T23:27:56.566Z,15.52
2023-09-02T23:31:00.322Z,15.56
2023-09-02T23:34:03.954Z,15.54
2023-09-02T23:37:08.994Z,15.46
2023-09-02T23:40:15.899Z,15.45
2023-09-02T23:43:20.382Z,15.37
2023-09-02T23:46:23.708Z,15.38
2023-09-02T23:49:27.369Z,15.34
2023-09-02T23:52:33.708Z,15.31
2023-09-02T23:55:37.025Z,15.25
2023-09-02T23:58:40.270Z,15.21
